Observations for EXETER AIRPORT, United Kingdom (EGTE)

EGTE 200650Z 01003KT CAVOK 09/07 Q1031  
EGTE 200620Z 01003KT CAVOK 06/06 Q1031  
EGTE 200550Z 04003KT CAVOK 06/05 Q1031  
EGTE 200520Z 05003KT CAVOK 06/05 Q1031  
EGTE 200450Z 04004KT CAVOK 06/05 Q1030  
EGTE 200420Z 05002KT CAVOK 07/06 Q1030  
EGTE 192320Z VRB02KT CAVOK 10/07 Q1030  
EGTE 192250Z 02001KT CAVOK 13/10 Q1030  
EGTE 192220Z 05001KT CAVOK 12/09 Q1030  
EGTE 192150Z 01003KT CAVOK 14/09 Q1030  
EGTE 192120Z 33003KT CAVOK 13/10 Q1030  
EGTE 192050Z VRB01KT CAVOK 14/09 Q1029  
EGTE 192020Z 06003KT CAVOK 15/11 Q1029  
EGTE 191950Z 05005KT CAVOK 17/11 Q1029  
EGTE 191920Z VRB03KT CAVOK 17/10 Q1029  
EGTE 191850Z 36003KT CAVOK 19/11 Q1029  
EGTE 191820Z 36004KT 330V030 CAVOK 20/10 Q1028  
EGTE 191750Z 36003KT CAVOK 21/09 Q1028  
EGTE 191720Z 02005KT 350V050 CAVOK 22/11 Q1028  
EGTE 191650Z 04006KT 350V060 CAVOK 21/11 Q1028  
EGTE 191620Z 03006KT 340V060 CAVOK 22/10 Q1028  
EGTE 191550Z VRB03KT CAVOK 22/09 Q1027  
EGTE 191520Z VRB03KT CAVOK 22/09 Q1027  
EGTE 191450Z 04004KT 350V120 CAVOK 21/09 Q1027  
EGTE 191420Z VRB05KT CAVOK 23/11 Q1028  
EGTE 191350Z 05005KT 010V100 CAVOK 22/10 Q1028  
EGTE 191320Z 07005KT 030V130 CAVOK 22/11 Q1028  
EGTE 191250Z 05006KT 010V070 CAVOK 20/09 Q1028  
EGTE 191220Z 06007KT CAVOK 21/12 Q1028  
EGTE 191150Z 05008KT CAVOK 20/10 Q1027  
EGTE 191120Z 05007KT CAVOK 20/09 Q1027  
EGTE 191050Z 02004KT 330V070 CAVOK 20/11 Q1027  
EGTE 191020Z 04006KT 010V070 CAVOK 19/11 Q1027  
EGTE 190950Z 01005KT 340V050 CAVOK 18/10 Q1027  
EGTE 190920Z 02007KT 340V050 CAVOK 17/10 Q1027  
EGTE 190850Z 04005KT CAVOK 17/11 Q1027  
EGTE 190820Z 35004KT 320V050 CAVOK 14/09 Q1027  
EGTE 190750Z 33003KT CAVOK 12/09 Q1027  
EGTE 190720Z 02003KT CAVOK 10/07 Q1027  
EGTE 190650Z 02003KT CAVOK 09/07 Q1026  
EGTE 190620Z 03002KT CAVOK 08/06 Q1026